sensor_id;sensor_type;location;lat;lon;timestamp;temperature;humidity
1614;DHT22;800;48.824;9.346;2023-07-20T00:01:15;27.10;38.70
1614;DHT22;800;48.824;9.346;2023-07-20T00:03:41;27.10;38.40
1614;DHT22;800;48.824;9.346;2023-07-20T00:06:06;27.10;38.10
1614;DHT22;800;48.824;9.346;2023-07-20T00:08:32;27.00;38.00
1614;DHT22;800;48.824;9.346;2023-07-20T00:10:58;27.00;37.90
1614;DHT22;800;48.824;9.346;2023-07-20T00:13:23;27.00;37.70
1614;DHT22;800;48.824;9.346;2023-07-20T00:15:49;27.10;37.70
1614;DHT22;800;48.824;9.346;2023-07-20T00:18:15;27.00;37.60
1614;DHT22;800;48.824;9.346;2023-07-20T00:20:40;27.00;37.90
1614;DHT22;800;48.824;9.346;2023-07-20T00:23:06;26.90;38.00
1614;DHT22;800;48.824;9.346;2023-07-20T00:25:32;26.90;37.80
1614;DHT22;800;48.824;9.346;2023-07-20T00:27:58;26.80;38.10
1614;DHT22;800;48.824;9.346;2023-07-20T00:30:24;26.90;38.70
1614;DHT22;800;48.824;9.346;2023-07-20T00:32:50;27.00;38.60
1614;DHT22;800;48.824;9.346;2023-07-20T00:35:15;27.10;38.80
1614;DHT22;800;48.824;9.346;2023-07-20T00:37:41;27.20;38.70
1614;DHT22;800;48.824;9.346;2023-07-20T00:40:07;27.20;38.30
1614;DHT22;800;48.824;9.346;2023-07-20T00:42:33;27.20;38.60
1614;DHT22;800;48.824;9.346;2023-07-20T00:44:59;27.10;38.50
1614;DHT22;800;48.824;9.346;2023-07-20T00:47:26;26.90;38.60
1614;DHT22;800;48.824;9.346;2023-07-20T00:49:52;26.80;38.80
1614;DHT22;800;48.824;9.346;2023-07-20T00:52:23;26.80;38.80
1614;DHT22;800;48.824;9.346;2023-07-20T00:54:49;26.80;38.80
1614;DHT22;800;48.824;9.346;2023-07-20T00:57:15;26.80;38.80
1614;DHT22;800;48.824;9.346;2023-07-20T00:59:43;26.70;38.70
1614;DHT22;800;48.824;9.346;2023-07-20T01:02:09;26.70;38.70
1614;DHT22;800;48.824;9.346;2023-07-20T01:04:35;26.50;38.50
1614;DHT22;800;48.824;9.346;2023-07-20T01:07:03;26.40;38.80
1614;DHT22;800;48.824;9.346;2023-07-20T01:12:27;26.40;38.90
1614;DHT22;800;48.824;9.346;2023-07-20T01:14:54;26.30;39.20
1614;DHT22;800;48.824;9.346;2023-07-20T01:17:19;26.30;39.60
1614;DHT22;800;48.824;9.346;2023-07-20T01:19:45;26.30;38.80
1614;DHT22;800;48.824;9.346;2023-07-20T01:28:29;26.30;38.40
1614;DHT22;800;48.824;9.346;2023-07-20T01:31:20;26.20;39.10
1614;DHT22;800;48.824;9.346;2023-07-20T01:33:48;26.10;39.20
1614;DHT22;800;48.824;9.346;2023-07-20T01:36:17;26.10;38.70
1614;DHT22;800;48.824;9.346;2023-07-20T01:38:43;26.00;39.40
1614;DHT22;800;48.824;9.346;2023-07-20T01:41:10;26.10;39.30
1614;DHT22;800;48.824;9.346;2023-07-20T01:43:36;26.10;39.10
1614;DHT22;800;48.824;9.346;2023-07-20T01:46:02;26.10;39.70
1614;DHT22;800;48.824;9.346;2023-07-20T01:48:27;26.20;40.00
1614;DHT22;800;48.824;9.346;2023-07-20T01:50:53;26.40;39.50
1614;DHT22;800;48.824;9.346;2023-07-20T01:53:20;26.40;39.70
1614;DHT22;800;48.824;9.346;2023-07-20T01:55:45;26.60;39.50
1614;DHT22;800;48.824;9.346;2023-07-20T01:58:11;26.60;38.70
1614;DHT22;800;48.824;9.346;2023-07-20T02:00:37;26.70;39.00
1614;DHT22;800;48.824;9.346;2023-07-20T02:03:03;26.80;38.90
1614;DHT22;800;48.824;9.346;2023-07-20T02:05:28;26.70;38.70
1614;DHT22;800;48.824;9.346;2023-07-20T02:07:54;26.80;38.90
1614;DHT22;800;48.824;9.346;2023-07-20T02:10:20;26.70;38.50
1614;DHT22;800;48.824;9.346;2023-07-20T02:12:46;26.60;38.20
1614;DHT22;800;48.824;9.346;2023-07-20T02:15:11;26.40;39.30
1614;DHT22;800;48.824;9.346;2023-07-20T02:17:39;26.30;39.80
1614;DHT22;800;48.824;9.346;2023-07-20T02:20:07;26.10;39.90
1614;DHT22;800;48.824;9.346;2023-07-20T02:22:34;26.10;40.00
1614;DHT22;800;48.824;9.346;2023-07-20T02:25:00;26.20;40.00
1614;DHT22;800;48.824;9.346;2023-07-20T02:27:25;26.10;39.80
1614;DHT22;800;48.824;9.346;2023-07-20T02:29:51;26.20;39.40
1614;DHT22;800;48.824;9.346;2023-07-20T02:32:16;26.10;39.80
1614;DHT22;800;48.824;9.346;2023-07-20T02:34:42;26.10;39.30
1614;DHT22;800;48.824;9.346;2023-07-20T02:37:08;25.90;40.00
1614;DHT22;800;48.824;9.346;2023-07-20T02:39:33;25.90;39.80
1614;DHT22;800;48.824;9.346;2023-07-20T02:41:59;25.90;40.00
1614;DHT22;800;48.824;9.346;2023-07-20T02:44:25;25.80;40.40
1614;DHT22;800;48.824;9.346;2023-07-20T02:46:50;25.70;40.90
1614;DHT22;800;48.824;9.346;2023-07-20T02:49:16;25.70;40.80
1614;DHT22;800;48.824;9.346;2023-07-20T02:51:42;25.80;40.50
1614;DHT22;800;48.824;9.346;2023-07-20T02:54:08;25.70;41.20
1614;DHT22;800;48.824;9.346;2023-07-20T02:56:34;25.80;40.90
1614;DHT22;800;48.824;9.346;2023-07-20T02:59:01;25.80;41.20
1614;DHT22;800;48.824;9.346;2023-07-20T03:01:27;26.00;41.00
1614;DHT22;800;48.824;9.346;2023-07-20T03:03:55;26.20;40.40
1614;DHT22;800;48.824;9.346;2023-07-20T03:06:20;26.30;40.30
1614;DHT22;800;48.824;9.346;2023-07-20T03:08:46;26.40;40.30
1614;DHT22;800;48.824;9.346;2023-07-20T03:11:18;26.50;40.00
1614;DHT22;800;48.824;9.346;2023-07-20T03:13:44;26.50;39.90
1614;DHT22;800;48.824;9.346;2023-07-20T03:16:12;26.60;40.00
1614;DHT22;800;48.824;9.346;2023-07-20T03:18:43;26.60;40.30
1614;DHT22;800;48.824;9.346;2023-07-20T03:21:10;26.60;40.10
1614;DHT22;800;48.824;9.346;2023-07-20T03:23:39;26.70;40.20
1614;DHT22;800;48.824;9.346;2023-07-20T03:26:06;26.60;40.00
1614;DHT22;800;48.824;9.346;2023-07-20T03:28:34;26.70;40.00
1614;DHT22;800;48.824;9.346;2023-07-20T03:30:59;26.50;40.60
1614;DHT22;800;48.824;9.346;2023-07-20T03:33:26;26.60;40.60
1614;DHT22;800;48.824;9.346;2023-07-20T03:35:53;26.50;40.70
1614;DHT22;800;48.824;9.346;2023-07-20T03:38:19;26.50;40.80
1614;DHT22;800;48.824;9.346;2023-07-20T03:40:56;26.30;41.10
1614;DHT22;800;48.824;9.346;2023-07-20T03:43:22;26.30;41.20
1614;DHT22;800;48.824;9.346;2023-07-20T03:45:49;26.30;41.20
1614;DHT22;800;48.824;9.346;2023-07-20T03:48:19;26.30;41.20
1614;DHT22;800;48.824;9.346;2023-07-20T03:50:47;26.20;41.30
1614;DHT22;800;48.824;9.346;2023-07-20T03:53:14;26.20;41.30
1614;DHT22;800;48.824;9.346;2023-07-20T03:55:50;26.10;41.40
1614;DHT22;800;48.824;9.346;2023-07-20T03:58:16;26.10;41.40
1614;DHT22;800;48.824;9.346;2023-07-20T04:00:46;26.30;41.20
1614;DHT22;800;48.824;9.346;2023-07-20T04:03:13;26.40;40.90
1614;DHT22;800;48.824;9.346;2023-07-20T04:05:39;26.60;40.40
1614;DHT22;800;48.824;9.346;2023-07-20T04:08:04;26.60;39.20
1614;DHT22;800;48.824;9.346;2023-07-20T04:10:30;26.50;39.20
1614;DHT22;800;48.824;9.346;2023-07-20T04:12:55;26.20;39.50
1614;DHT22;800;48.824;9.346;2023-07-20T04:15:21;26.00;39.90
1614;DHT22;800;48.824;9.346;2023-07-20T04:17:47;25.80;40.30
1614;DHT22;800;48.824;9.346;2023-07-20T04:20:12;25.60;40.90
1614;DHT22;800;48.824;9.346;2023-07-20T04:22:38;25.40;41.30
1614;DHT22;800;48.824;9.346;2023-07-20T04:25:04;25.20;41.70
1614;DHT22;800;48.824;9.346;2023-07-20T04:27:30;25.00;42.10
1614;DHT22;800;48.824;9.346;2023-07-20T04:29:57;24.90;42.30
1614;DHT22;800;48.824;9.346;2023-07-20T04:32:23;24.80;42.50
1614;DHT22;800;48.824;9.346;2023-07-20T04:34:48;24.80;42.70
1614;DHT22;800;48.824;9.346;2023-07-20T04:37:14;24.70;42.90
1614;DHT22;800;48.824;9.346;2023-07-20T04:39:39;24.60;43.20
1614;DHT22;800;48.824;9.346;2023-07-20T04:42:05;24.50;43.40
1614;DHT22;800;48.824;9.346;2023-07-20T04:44:30;24.50;43.70
1614;DHT22;800;48.824;9.346;2023-07-20T04:46:56;24.40;43.80
1614;DHT22;800;48.824;9.346;2023-07-20T04:49:22;24.40;44.00
1614;DHT22;800;48.824;9.346;2023-07-20T04:51:47;24.40;44.10
1614;DHT22;800;48.824;9.346;2023-07-20T04:54:13;24.40;44.30
1614;DHT22;800;48.824;9.346;2023-07-20T04:56:39;24.30;44.30
1614;DHT22;800;48.824;9.346;2023-07-20T04:59:04;24.30;44.40
1614;DHT22;800;48.824;9.346;2023-07-20T05:01:30;24.30;44.90
1614;DHT22;800;48.824;9.346;2023-07-20T05:03:55;24.30;44.90
1614;DHT22;800;48.824;9.346;2023-07-20T05:06:21;24.20;45.00
1614;DHT22;800;48.824;9.346;2023-07-20T05:08:47;24.10;47.20
1614;DHT22;800;48.824;9.346;2023-07-20T05:11:12;24.30;46.10
1614;DHT22;800;48.824;9.346;2023-07-20T05:13:38;24.50;45.50
1614;DHT22;800;48.824;9.346;2023-07-20T05:16:04;24.70;44.90
1614;DHT22;800;48.824;9.346;2023-07-20T05:18:29;24.90;44.50
1614;DHT22;800;48.824;9.346;2023-07-20T05:20:55;25.00;44.20
1614;DHT22;800;48.824;9.346;2023-07-20T05:23:21;25.10;44.00
1614;DHT22;800;48.824;9.346;2023-07-20T05:25:58;25.20;43.80
1614;DHT22;800;48.824;9.346;2023-07-20T05:28:24;25.20;43.70
1614;DHT22;800;48.824;9.346;2023-07-20T05:30:51;25.00;43.80
1614;DHT22;800;48.824;9.346;2023-07-20T05:33:20;25.10;43.70
1614;DHT22;800;48.824;9.346;2023-07-20T05:35:46;25.10;43.90
1614;DHT22;800;48.824;9.346;2023-07-20T05:38:11;25.20;43.70
1614;DHT22;800;48.824;9.346;2023-07-20T05:40:41;25.30;43.60
1614;DHT22;800;48.824;9.346;2023-07-20T05:43:08;25.40;43.40
1614;DHT22;800;48.824;9.346;2023-07-20T05:45:34;25.40;43.30
1614;DHT22;800;48.824;9.346;2023-07-20T05:47:59;25.60;43.40
1614;DHT22;800;48.824;9.346;2023-07-20T05:50:25;25.60;43.20
1614;DHT22;800;48.824;9.346;2023-07-20T05:52:53;25.60;42.90
1614;DHT22;800;48.824;9.346;2023-07-20T05:55:19;25.60;43.60
1614;DHT22;800;48.824;9.346;2023-07-20T05:57:45;25.50;43.30
1614;DHT22;800;48.824;9.346;2023-07-20T06:00:11;25.50;43.40
1614;DHT22;800;48.824;9.346;2023-07-20T06:02:40;25.60;43.70
1614;DHT22;800;48.824;9.346;2023-07-20T06:05:06;25.90;43.60
1614;DHT22;800;48.824;9.346;2023-07-20T06:07:38;26.10;43.10
1614;DHT22;800;48.824;9.346;2023-07-20T06:10:04;26.20;43.30
1614;DHT22;800;48.824;9.346;2023-07-20T06:12:31;26.20;42.60
1614;DHT22;800;48.824;9.346;2023-07-20T06:14:56;26.10;42.90
1614;DHT22;800;48.824;9.346;2023-07-20T06:17:22;26.20;42.90
1614;DHT22;800;48.824;9.346;2023-07-20T06:19:47;26.30;42.80
1614;DHT22;800;48.824;9.346;2023-07-20T06:22:13;26.40;42.30
1614;DHT22;800;48.824;9.346;2023-07-20T06:24:38;26.40;42.40
1614;DHT22;800;48.824;9.346;2023-07-20T06:27:04;26.50;42.50
1614;DHT22;800;48.824;9.346;2023-07-20T06:29:31;26.50;42.10
1614;DHT22;800;48.824;9.346;2023-07-20T06:31:56;26.60;42.90
1614;DHT22;800;48.824;9.346;2023-07-20T06:34:22;26.70;42.40
1614;DHT22;800;48.824;9.346;2023-07-20T06:36:47;26.70;42.80
1614;DHT22;800;48.824;9.346;2023-07-20T06:39:13;26.70;42.70
1614;DHT22;800;48.824;9.346;2023-07-20T06:41:39;26.70;42.90
1614;DHT22;800;48.824;9.346;2023-07-20T06:44:05;26.90;42.70
1614;DHT22;800;48.824;9.346;2023-07-20T06:46:30;26.90;42.30
1614;DHT22;800;48.824;9.346;2023-07-20T06:48:56;26.90;41.00
1614;DHT22;800;48.824;9.346;2023-07-20T06:51:22;26.90;40.80
1614;DHT22;800;48.824;9.346;2023-07-20T06:53:48;26.70;41.20
1614;DHT22;800;48.824;9.346;2023-07-20T06:56:13;26.80;41.30
1614;DHT22;800;48.824;9.346;2023-07-20T06:58:39;26.80;41.30
1614;DHT22;800;48.824;9.346;2023-07-20T07:01:08;26.90;41.10
1614;DHT22;800;48.824;9.346;2023-07-20T07:03:34;27.00;41.10
1614;DHT22;800;48.824;9.346;2023-07-20T07:06:00;26.90;40.90
1614;DHT22;800;48.824;9.346;2023-07-20T07:08:26;27.00;41.00
1614;DHT22;800;48.824;9.346;2023-07-20T07:10:52;27.00;41.00
1614;DHT22;800;48.824;9.346;2023-07-20T07:13:18;26.90;41.20
1614;DHT22;800;48.824;9.346;2023-07-20T07:15:44;27.00;40.90
1614;DHT22;800;48.824;9.346;2023-07-20T07:18:10;27.10;40.90
1614;DHT22;800;48.824;9.346;2023-07-20T07:20:36;27.10;40.80
1614;DHT22;800;48.824;9.346;2023-07-20T07:23:01;27.20;40.70
1614;DHT22;800;48.824;9.346;2023-07-20T07:25:27;27.30;40.80
1614;DHT22;800;48.824;9.346;2023-07-20T07:27:54;27.40;40.70
1614;DHT22;800;48.824;9.346;2023-07-20T07:30:20;27.50;42.00
1614;DHT22;800;48.824;9.346;2023-07-20T07:32:46;27.40;40.80
1614;DHT22;800;48.824;9.346;2023-07-20T07:35:12;27.40;40.60
1614;DHT22;800;48.824;9.346;2023-07-20T07:37:38;27.30;40.30
1614;DHT22;800;48.824;9.346;2023-07-20T07:40:04;27.30;40.40
1614;DHT22;800;48.824;9.346;2023-07-20T07:42:31;27.40;40.60
1614;DHT22;800;48.824;9.346;2023-07-20T07:44:56;27.50;40.70
1614;DHT22;800;48.824;9.346;2023-07-20T07:47:22;27.50;40.80
1614;DHT22;800;48.824;9.346;2023-07-20T07:49:47;27.70;40.60
1614;DHT22;800;48.824;9.346;2023-07-20T07:52:13;27.60;40.80
1614;DHT22;800;48.824;9.346;2023-07-20T07:54:39;27.80;40.70
1614;DHT22;800;48.824;9.346;2023-07-20T07:57:05;27.90;40.30
1614;DHT22;800;48.824;9.346;2023-07-20T07:59:31;28.00;40.30
1614;DHT22;800;48.824;9.346;2023-07-20T08:02:02;28.00;39.70
1614;DHT22;800;48.824;9.346;2023-07-20T08:04:28;28.00;39.50
1614;DHT22;800;48.824;9.346;2023-07-20T08:06:53;28.00;39.40
1614;DHT22;800;48.824;9.346;2023-07-20T08:09:19;27.90;39.30
1614;DHT22;800;48.824;9.346;2023-07-20T08:11:44;27.90;39.20
1614;DHT22;800;48.824;9.346;2023-07-20T08:17:04;28.10;38.50
1614;DHT22;800;48.824;9.346;2023-07-20T08:19:30;28.10;38.70
1614;DHT22;800;48.824;9.346;2023-07-20T08:21:55;28.30;38.10
1614;DHT22;800;48.824;9.346;2023-07-20T08:24:21;28.10;38.00
1614;DHT22;800;48.824;9.346;2023-07-20T08:26:47;27.80;37.70
1614;DHT22;800;48.824;9.346;2023-07-20T08:29:12;27.70;38.30
1614;DHT22;800;48.824;9.346;2023-07-20T08:31:38;27.80;38.60
1614;DHT22;800;48.824;9.346;2023-07-20T08:34:03;28.00;38.20
1614;DHT22;800;48.824;9.346;2023-07-20T08:36:29;28.20;37.40
1614;DHT22;800;48.824;9.346;2023-07-20T08:38:54;28.00;37.10
1614;DHT22;800;48.824;9.346;2023-07-20T08:41:20;28.20;37.10
1614;DHT22;800;48.824;9.346;2023-07-20T08:43:46;28.20;37.80
1614;DHT22;800;48.824;9.346;2023-07-20T08:46:13;28.00;38.00
1614;DHT22;800;48.824;9.346;2023-07-20T08:48:41;28.10;37.70
1614;DHT22;800;48.824;9.346;2023-07-20T08:51:07;28.00;38.00
1614;DHT22;800;48.824;9.346;2023-07-20T08:53:34;28.10;38.00
1614;DHT22;800;48.824;9.346;2023-07-20T08:55:59;28.20;38.10
1614;DHT22;800;48.824;9.346;2023-07-20T08:58:27;27.90;38.10
1614;DHT22;800;48.824;9.346;2023-07-20T09:00:54;27.90;38.60
1614;DHT22;800;48.824;9.346;2023-07-20T09:03:19;28.00;38.00
1614;DHT22;800;48.824;9.346;2023-07-20T09:05:45;28.10;37.90
1614;DHT22;800;48.824;9.346;2023-07-20T09:08:11;28.30;37.20
1614;DHT22;800;48.824;9.346;2023-07-20T09:10:37;28.20;36.90
1614;DHT22;800;48.824;9.346;2023-07-20T09:13:02;28.20;36.10
1614;DHT22;800;48.824;9.346;2023-07-20T09:15:29;28.30;35.40
1614;DHT22;800;48.824;9.346;2023-07-20T09:17:55;28.50;35.00
1614;DHT22;800;48.824;9.346;2023-07-20T09:20:21;28.50;34.90
1614;DHT22;800;48.824;9.346;2023-07-20T09:22:47;28.30;35.80
1614;DHT22;800;48.824;9.346;2023-07-20T09:25:17;28.70;36.00
1614;DHT22;800;48.824;9.346;2023-07-20T09:27:47;29.00;34.70
1614;DHT22;800;48.824;9.346;2023-07-20T09:30:14;29.00;33.90
1614;DHT22;800;48.824;9.346;2023-07-20T09:32:48;29.10;34.00
1614;DHT22;800;48.824;9.346;2023-07-20T09:35:15;29.10;34.40
1614;DHT22;800;48.824;9.346;2023-07-20T09:37:50;29.20;34.50
1614;DHT22;800;48.824;9.346;2023-07-20T09:40:18;29.60;34.20
1614;DHT22;800;48.824;9.346;2023-07-20T09:42:44;29.70;33.00
1614;DHT22;800;48.824;9.346;2023-07-20T09:45:10;29.70;33.30
1614;DHT22;800;48.824;9.346;2023-07-20T09:47:37;29.70;33.90
1614;DHT22;800;48.824;9.346;2023-07-20T09:50:07;29.60;33.90
1614;DHT22;800;48.824;9.346;2023-07-20T09:52:38;29.50;34.30
1614;DHT22;800;48.824;9.346;2023-07-20T09:55:08;29.60;34.50
1614;DHT22;800;48.824;9.346;2023-07-20T09:57:35;29.60;33.90
1614;DHT22;800;48.824;9.346;2023-07-20T10:00:03;29.60;34.20
1614;DHT22;800;48.824;9.346;2023-07-20T10:02:37;29.60;33.30
1614;DHT22;800;48.824;9.346;2023-07-20T10:05:06;29.30;32.80
1614;DHT22;800;48.824;9.346;2023-07-20T10:07:38;29.40;33.00
1614;DHT22;800;48.824;9.346;2023-07-20T10:10:06;29.60;33.10
1614;DHT22;800;48.824;9.346;2023-07-20T10:12:37;29.90;32.80
1614;DHT22;800;48.824;9.346;2023-07-20T10:15:24;30.10;33.30
1614;DHT22;800;48.824;9.346;2023-07-20T10:18:00;30.00;31.30
1614;DHT22;800;48.824;9.346;2023-07-20T10:20:27;29.90;31.30
1614;DHT22;800;48.824;9.346;2023-07-20T10:22:54;29.90;31.80
1614;DHT22;800;48.824;9.346;2023-07-20T10:25:22;30.20;31.40
1614;DHT22;800;48.824;9.346;2023-07-20T10:27:48;30.50;30.30
1614;DHT22;800;48.824;9.346;2023-07-20T10:30:14;30.70;30.00
1614;DHT22;800;48.824;9.346;2023-07-20T10:32:41;30.70;29.80
1614;DHT22;800;48.824;9.346;2023-07-20T10:35:15;30.70;29.70
1614;DHT22;800;48.824;9.346;2023-07-20T10:37:47;30.80;29.60
1614;DHT22;800;48.824;9.346;2023-07-20T10:40:28;30.90;29.80
1614;DHT22;800;48.824;9.346;2023-07-20T10:43:04;30.80;29.50
1614;DHT22;800;48.824;9.346;2023-07-20T10:45:42;31.00;29.00
1614;DHT22;800;48.824;9.346;2023-07-20T10:48:33;31.10;29.40
1614;DHT22;800;48.824;9.346;2023-07-20T10:51:13;31.20;28.40
1614;DHT22;800;48.824;9.346;2023-07-20T10:53:42;30.80;28.60
1614;DHT22;800;48.824;9.346;2023-07-20T10:56:15;30.70;28.70
1614;DHT22;800;48.824;9.346;2023-07-20T10:58:44;30.70;29.00
1614;DHT22;800;48.824;9.346;2023-07-20T11:01:14;30.60;28.90
1614;DHT22;800;48.824;9.346;2023-07-20T11:03:40;30.70;29.00
1614;DHT22;800;48.824;9.346;2023-07-20T11:06:30;30.80;28.20
1614;DHT22;800;48.824;9.346;2023-07-20T11:11:37;30.90;28.80
1614;DHT22;800;48.824;9.346;2023-07-20T11:14:10;31.00;28.70
1614;DHT22;800;48.824;9.346;2023-07-20T11:16:46;31.00;28.50
1614;DHT22;800;48.824;9.346;2023-07-20T11:19:17;31.20;27.60
1614;DHT22;800;48.824;9.346;2023-07-20T11:21:44;31.50;27.50
1614;DHT22;800;48.824;9.346;2023-07-20T11:24:10;31.70;27.60
1614;DHT22;800;48.824;9.346;2023-07-20T11:26:41;31.70;27.50
1614;DHT22;800;48.824;9.346;2023-07-20T11:29:07;31.70;27.00
1614;DHT22;800;48.824;9.346;2023-07-20T11:31:40;31.90;26.90
1614;DHT22;800;48.824;9.346;2023-07-20T11:34:10;31.90;27.00
1614;DHT22;800;48.824;9.346;2023-07-20T11:36:36;32.00;27.00
1614;DHT22;800;48.824;9.346;2023-07-20T11:39:02;32.00;26.70
1614;DHT22;800;48.824;9.346;2023-07-20T11:41:30;32.10;26.40
1614;DHT22;800;48.824;9.346;2023-07-20T11:43:57;32.40;26.90
1614;DHT22;800;48.824;9.346;2023-07-20T11:46:22;32.40;26.40
1614;DHT22;800;48.824;9.346;2023-07-20T11:48:48;32.20;26.20
1614;DHT22;800;48.824;9.346;2023-07-20T11:51:17;32.20;27.10
1614;DHT22;800;48.824;9.346;2023-07-20T11:53:44;32.30;27.00
1614;DHT22;800;48.824;9.346;2023-07-20T11:56:11;32.50;27.00
1614;DHT22;800;48.824;9.346;2023-07-20T11:58:43;32.80;26.70
1614;DHT22;800;48.824;9.346;2023-07-20T12:01:09;33.10;26.40
1614;DHT22;800;48.824;9.346;2023-07-20T12:03:36;32.90;25.50
1614;DHT22;800;48.824;9.346;2023-07-20T12:06:08;33.00;25.50
1614;DHT22;800;48.824;9.346;2023-07-20T12:08:34;33.10;25.40
1614;DHT22;800;48.824;9.346;2023-07-20T12:11:00;33.30;25.00
1614;DHT22;800;48.824;9.346;2023-07-20T12:13:54;33.00;24.80
1614;DHT22;800;48.824;9.346;2023-07-20T12:16:27;33.00;25.00
1614;DHT22;800;48.824;9.346;2023-07-20T12:19:03;33.20;24.90
1614;DHT22;800;48.824;9.346;2023-07-20T12:21:30;33.20;25.80
1614;DHT22;800;48.824;9.346;2023-07-20T12:23:57;33.40;25.00
1614;DHT22;800;48.824;9.346;2023-07-20T12:26:24;33.60;24.00
1614;DHT22;800;48.824;9.346;2023-07-20T12:28:50;33.60;23.60
1614;DHT22;800;48.824;9.346;2023-07-20T12:31:16;33.60;24.60
1614;DHT22;800;48.824;9.346;2023-07-20T12:33:42;33.60;24.20
1614;DHT22;800;48.824;9.346;2023-07-20T12:36:09;33.40;24.10
1614;DHT22;800;48.824;9.346;2023-07-20T12:38:35;33.40;24.20
1614;DHT22;800;48.824;9.346;2023-07-20T12:41:01;33.50;24.30
1614;DHT22;800;48.824;9.346;2023-07-20T12:43:27;33.60;24.90
1614;DHT22;800;48.824;9.346;2023-07-20T12:45:53;33.80;24.30
1614;DHT22;800;48.824;9.346;2023-07-20T12:48:18;33.70;24.20
1614;DHT22;800;48.824;9.346;2023-07-20T12:50:44;33.60;24.50
1614;DHT22;800;48.824;9.346;2023-07-20T12:53:10;33.60;24.10
1614;DHT22;800;48.824;9.346;2023-07-20T12:55:35;33.90;24.80
1614;DHT22;800;48.824;9.346;2023-07-20T12:58:01;34.10;24.40
1614;DHT22;800;48.824;9.346;2023-07-20T13:00:27;34.10;24.00
1614;DHT22;800;48.824;9.346;2023-07-20T13:02:52;33.90;23.60
1614;DHT22;800;48.824;9.346;2023-07-20T13:05:22;33.90;23.60
1614;DHT22;800;48.824;9.346;2023-07-20T13:07:48;34.00;23.90
1614;DHT22;800;48.824;9.346;2023-07-20T13:15:14;34.20;23.70
1614;DHT22;800;48.824;9.346;2023-07-20T13:17:40;34.20;23.70
1614;DHT22;800;48.824;9.346;2023-07-20T13:20:08;34.20;25.00
1614;DHT22;800;48.824;9.346;2023-07-20T13:22:35;34.50;23.50
1614;DHT22;800;48.824;9.346;2023-07-20T13:25:01;34.70;23.10
1614;DHT22;800;48.824;9.346;2023-07-20T13:27:27;34.60;23.80
1614;DHT22;800;48.824;9.346;2023-07-20T13:29:53;34.70;23.40
1614;DHT22;800;48.824;9.346;2023-07-20T13:32:19;34.80;23.70
1614;DHT22;800;48.824;9.346;2023-07-20T13:34:45;34.80;22.70
1614;DHT22;800;48.824;9.346;2023-07-20T13:37:11;34.70;22.20
1614;DHT22;800;48.824;9.346;2023-07-20T13:39:37;34.70;22.40
1614;DHT22;800;48.824;9.346;2023-07-20T13:42:04;34.70;22.70
1614;DHT22;800;48.824;9.346;2023-07-20T13:44:31;34.70;22.50
1614;DHT22;800;48.824;9.346;2023-07-20T13:46:57;34.80;22.50
1614;DHT22;800;48.824;9.346;2023-07-20T13:49:22;34.40;22.20
1614;DHT22;800;48.824;9.346;2023-07-20T13:51:48;34.40;22.60
1614;DHT22;800;48.824;9.346;2023-07-20T13:54:13;34.50;22.80
1614;DHT22;800;48.824;9.346;2023-07-20T13:56:39;34.50;22.70
1614;DHT22;800;48.824;9.346;2023-07-20T13:59:05;34.60;22.40
1614;DHT22;800;48.824;9.346;2023-07-20T14:01:30;34.60;22.40
1614;DHT22;800;48.824;9.346;2023-07-20T14:03:58;34.60;22.30
1614;DHT22;800;48.824;9.346;2023-07-20T14:06:24;34.60;22.30
1614;DHT22;800;48.824;9.346;2023-07-20T14:08:50;34.60;22.40
1614;DHT22;800;48.824;9.346;2023-07-20T14:11:16;34.50;22.70
1614;DHT22;800;48.824;9.346;2023-07-20T14:13:42;34.40;22.20
1614;DHT22;800;48.824;9.346;2023-07-20T14:16:07;34.50;22.10
1614;DHT22;800;48.824;9.346;2023-07-20T14:18:36;34.60;22.40
1614;DHT22;800;48.824;9.346;2023-07-20T14:21:02;34.80;22.10
1614;DHT22;800;48.824;9.346;2023-07-20T14:23:30;34.90;21.70
1614;DHT22;800;48.824;9.346;2023-07-20T14:25:56;34.80;21.60
1614;DHT22;800;48.824;9.346;2023-07-20T14:28:21;34.90;22.50
1614;DHT22;800;48.824;9.346;2023-07-20T14:30:47;34.90;21.90
1614;DHT22;800;48.824;9.346;2023-07-20T14:33:12;35.10;21.70
1614;DHT22;800;48.824;9.346;2023-07-20T14:35:38;35.10;22.20
1614;DHT22;800;48.824;9.346;2023-07-20T14:38:04;35.10;21.60
1614;DHT22;800;48.824;9.346;2023-07-20T14:40:29;35.20;21.60
1614;DHT22;800;48.824;9.346;2023-07-20T14:42:56;35.20;22.00
1614;DHT22;800;48.824;9.346;2023-07-20T14:45:21;35.40;21.80
1614;DHT22;800;48.824;9.346;2023-07-20T14:47:47;35.50;21.40
1614;DHT22;800;48.824;9.346;2023-07-20T14:50:19;35.60;21.40
1614;DHT22;800;48.824;9.346;2023-07-20T14:52:45;35.70;21.20
1614;DHT22;800;48.824;9.346;2023-07-20T14:55:10;35.60;21.40
1614;DHT22;800;48.824;9.346;2023-07-20T14:57:36;35.40;21.40
1614;DHT22;800;48.824;9.346;2023-07-20T15:00:02;35.00;21.00
1614;DHT22;800;48.824;9.346;2023-07-20T15:02:29;35.00;21.50
1614;DHT22;800;48.824;9.346;2023-07-20T15:04:54;35.10;21.00
1614;DHT22;800;48.824;9.346;2023-07-20T15:07:21;35.20;21.10
1614;DHT22;800;48.824;9.346;2023-07-20T15:09:47;35.20;21.30
1614;DHT22;800;48.824;9.346;2023-07-20T15:12:13;35.40;21.10
1614;DHT22;800;48.824;9.346;2023-07-20T15:14:40;35.30;21.40
1614;DHT22;800;48.824;9.346;2023-07-20T15:17:07;35.30;20.70
1614;DHT22;800;48.824;9.346;2023-07-20T15:19:32;35.40;20.70
1614;DHT22;800;48.824;9.346;2023-07-20T15:21:59;35.30;20.50
1614;DHT22;800;48.824;9.346;2023-07-20T15:24:25;35.30;20.80
1614;DHT22;800;48.824;9.346;2023-07-20T15:26:51;35.20;21.00
1614;DHT22;800;48.824;9.346;2023-07-20T15:29:16;35.10;21.30
1614;DHT22;800;48.824;9.346;2023-07-20T15:31:42;35.00;21.90
1614;DHT22;800;48.824;9.346;2023-07-20T15:34:07;35.00;21.50
1614;DHT22;800;48.824;9.346;2023-07-20T15:36:33;35.10;21.40
1614;DHT22;800;48.824;9.346;2023-07-20T15:38:59;35.10;21.10
1614;DHT22;800;48.824;9.346;2023-07-20T15:41:24;35.10;20.80
1614;DHT22;800;48.824;9.346;2023-07-20T15:43:50;35.10;21.20
1614;DHT22;800;48.824;9.346;2023-07-20T15:48:46;35.30;22.50
1614;DHT22;800;48.824;9.346;2023-07-20T15:51:12;35.40;21.80
1614;DHT22;800;48.824;9.346;2023-07-20T15:53:39;35.40;21.00
1614;DHT22;800;48.824;9.346;2023-07-20T15:56:05;35.10;20.80
1614;DHT22;800;48.824;9.346;2023-07-20T15:58:32;35.00;21.20
1614;DHT22;800;48.824;9.346;2023-07-20T16:00:58;34.90;21.50
1614;DHT22;800;48.824;9.346;2023-07-20T16:03:23;34.80;21.90
1614;DHT22;800;48.824;9.346;2023-07-20T16:05:52;34.80;22.10
1614;DHT22;800;48.824;9.346;2023-07-20T16:08:18;34.40;22.60
1614;DHT22;800;48.824;9.346;2023-07-20T16:10:44;34.30;22.50
1614;DHT22;800;48.824;9.346;2023-07-20T16:13:10;34.20;22.80
1614;DHT22;800;48.824;9.346;2023-07-20T16:15:35;34.20;22.30
1614;DHT22;800;48.824;9.346;2023-07-20T16:18:01;34.40;22.40
1614;DHT22;800;48.824;9.346;2023-07-20T16:20:26;34.40;22.50
1614;DHT22;800;48.824;9.346;2023-07-20T16:22:53;34.40;22.60
1614;DHT22;800;48.824;9.346;2023-07-20T16:25:19;34.40;22.90
1614;DHT22;800;48.824;9.346;2023-07-20T16:27:44;34.30;23.10
1614;DHT22;800;48.824;9.346;2023-07-20T16:30:10;34.00;23.60
1614;DHT22;800;48.824;9.346;2023-07-20T16:32:37;33.80;23.70
1614;DHT22;800;48.824;9.346;2023-07-20T16:35:03;33.90;23.20
1614;DHT22;800;48.824;9.346;2023-07-20T16:37:29;33.90;22.50